sensor_id;sensor_type;location;lat;lon;timestamp;temperature;humidity
8832;DHT22;4452;50.756;4.472;2022-11-20T00:01:18;4.30;99.90
8832;DHT22;4452;50.756;4.472;2022-11-20T00:03:45;4.30;99.90
8832;DHT22;4452;50.756;4.472;2022-11-20T00:06:14;4.40;99.90
8832;DHT22;4452;50.756;4.472;2022-11-20T00:08:40;4.40;99.90
8832;DHT22;4452;50.756;4.472;2022-11-20T00:11:08;4.40;99.90
8832;DHT22;4452;50.756;4.472;2022-11-20T00:13:34;4.40;99.90
8832;DHT22;4452;50.756;4.472;2022-11-20T00:16:04;4.50;99.90
8832;DHT22;4452;50.756;4.472;2022-11-20T00:18:30;4.40;99.90
8832;DHT22;4452;50.756;4.472;2022-11-20T00:21:07;4.40;99.90
8832;DHT22;4452;50.756;4.472;2022-11-20T00:23:33;4.50;99.90
8832;DHT22;4452;50.756;4.472;2022-11-20T00:26:26;4.50;99.90
8832;DHT22;4452;50.756;4.472;2022-11-20T00:28:58;4.40;99.90
8832;DHT22;4452;50.756;4.472;2022-11-20T00:31:24;4.50;99.90
8832;DHT22;4452;50.756;4.472;2022-11-20T00:33:50;4.50;99.90
8832;DHT22;4452;50.756;4.472;2022-11-20T00:36:22;4.60;99.90
8832;DHT22;4452;50.756;4.472;2022-11-20T00:38:52;4.60;99.90
8832;DHT22;4452;50.756;4.472;2022-11-20T00:41:17;4.60;99.90
8832;DHT22;4452;50.756;4.472;2022-11-20T00:43:43;4.60;99.90
8832;DHT22;4452;50.756;4.472;2022-11-20T00:46:20;4.60;99.90
8832;DHT22;4452;50.756;4.472;2022-11-20T00:48:47;4.60;99.90
8832;DHT22;4452;50.756;4.472;2022-11-20T00:51:15;4.60;99.90
8832;DHT22;4452;50.756;4.472;2022-11-20T00:53:41;4.60;99.90
8832;DHT22;4452;50.756;4.472;2022-11-20T00:56:10;4.60;99.90
8832;DHT22;4452;50.756;4.472;2022-11-20T00:58:38;4.60;99.90
8832;DHT22;4452;50.756;4.472;2022-11-20T01:01:07;4.60;99.90
8832;DHT22;4452;50.756;4.472;2022-11-20T01:03:43;4.60;99.90
8832;DHT22;4452;50.756;4.472;2022-11-20T01:06:23;4.60;99.90
8832;DHT22;4452;50.756;4.472;2022-11-20T01:08:50;4.60;99.90
8832;DHT22;4452;50.756;4.472;2022-11-20T01:11:19;4.60;99.90
8832;DHT22;4452;50.756;4.472;2022-11-20T01:13:47;4.60;99.90
8832;DHT22;4452;50.756;4.472;2022-11-20T01:16:16;4.70;99.90
8832;DHT22;4452;50.756;4.472;2022-11-20T01:18:45;4.60;99.90
8832;DHT22;4452;50.756;4.472;2022-11-20T01:21:13;4.50;99.90
8832;DHT22;4452;50.756;4.472;2022-11-20T01:23:41;4.50;99.90
8832;DHT22;4452;50.756;4.472;2022-11-20T01:26:09;4.60;99.90
8832;DHT22;4452;50.756;4.472;2022-11-20T01:28:36;4.50;99.90
8832;DHT22;4452;50.756;4.472;2022-11-20T01:31:18;4.50;99.90
8832;DHT22;4452;50.756;4.472;2022-11-20T01:33:45;4.40;99.90
8832;DHT22;4452;50.756;4.472;2022-11-20T01:36:12;4.40;99.90
8832;DHT22;4452;50.756;4.472;2022-11-20T01:38:38;4.50;99.90
8832;DHT22;4452;50.756;4.472;2022-11-20T01:41:04;4.50;99.90
8832;DHT22;4452;50.756;4.472;2022-11-20T01:43:31;4.50;99.90
8832;DHT22;4452;50.756;4.472;2022-11-20T01:51:19;4.40;99.90
8832;DHT22;4452;50.756;4.472;2022-11-20T01:53:46;4.40;99.90
8832;DHT22;4452;50.756;4.472;2022-11-20T01:56:14;4.40;99.90
8832;DHT22;4452;50.756;4.472;2022-11-20T01:58:46;4.40;99.90
8832;DHT22;4452;50.756;4.472;2022-11-20T02:01:13;4.50;99.90
8832;DHT22;4452;50.756;4.472;2022-11-20T02:03:39;4.40;99.90
8832;DHT22;4452;50.756;4.472;2022-11-20T02:06:08;4.40;99.90
8832;DHT22;4452;50.756;4.472;2022-11-20T02:08:37;4.60;99.90
8832;DHT22;4452;50.756;4.472;2022-11-20T02:11:03;4.60;99.90
8832;DHT22;4452;50.756;4.472;2022-11-20T02:13:29;4.50;99.90
8832;DHT22;4452;50.756;4.472;2022-11-20T02:16:21;4.50;99.90
8832;DHT22;4452;50.756;4.472;2022-11-20T02:18:47;4.50;99.90
8832;DHT22;4452;50.756;4.472;2022-11-20T02:21:25;4.50;99.90
8832;DHT22;4452;50.756;4.472;2022-11-20T02:26:47;4.40;99.90
8832;DHT22;4452;50.756;4.472;2022-11-20T02:29:17;4.40;99.90
8832;DHT22;4452;50.756;4.472;2022-11-20T02:31:45;4.40;99.90
8832;DHT22;4452;50.756;4.472;2022-11-20T02:34:10;4.30;99.90
8832;DHT22;4452;50.756;4.472;2022-11-20T02:36:39;4.40;99.90
8832;DHT22;4452;50.756;4.472;2022-11-20T02:39:05;4.40;99.90
8832;DHT22;4452;50.756;4.472;2022-11-20T02:41:36;4.40;99.90
8832;DHT22;4452;50.756;4.472;2022-11-20T02:44:03;4.40;99.90
8832;DHT22;4452;50.756;4.472;2022-11-20T02:46:30;4.40;99.90
8832;DHT22;4452;50.756;4.472;2022-11-20T02:48:56;4.30;99.90
8832;DHT22;4452;50.756;4.472;2022-11-20T02:51:22;4.30;99.90
8832;DHT22;4452;50.756;4.472;2022-11-20T02:53:47;4.30;99.90
8832;DHT22;4452;50.756;4.472;2022-11-20T02:56:13;4.30;99.90
8832;DHT22;4452;50.756;4.472;2022-11-20T02:58:39;4.30;99.90
8832;DHT22;4452;50.756;4.472;2022-11-20T03:01:05;4.40;99.90
8832;DHT22;4452;50.756;4.472;2022-11-20T03:03:30;4.30;99.90
8832;DHT22;4452;50.756;4.472;2022-11-20T03:05:58;4.20;99.90
8832;DHT22;4452;50.756;4.472;2022-11-20T03:08:24;4.20;99.90
8832;DHT22;4452;50.756;4.472;2022-11-20T03:10:50;4.10;99.90
8832;DHT22;4452;50.756;4.472;2022-11-20T03:13:15;4.20;99.90
8832;DHT22;4452;50.756;4.472;2022-11-20T03:15:41;4.20;99.90
8832;DHT22;4452;50.756;4.472;2022-11-20T03:18:07;4.20;99.90
8832;DHT22;4452;50.756;4.472;2022-11-20T03:20:33;4.20;99.90
8832;DHT22;4452;50.756;4.472;2022-11-20T03:22:59;4.20;99.90
8832;DHT22;4452;50.756;4.472;2022-11-20T03:25:25;4.20;99.90
8832;DHT22;4452;50.756;4.472;2022-11-20T03:27:50;4.20;99.90
8832;DHT22;4452;50.756;4.472;2022-11-20T03:30:16;4.20;99.90
8832;DHT22;4452;50.756;4.472;2022-11-20T03:32:42;4.20;99.90
8832;DHT22;4452;50.756;4.472;2022-11-20T03:35:09;4.20;99.90
8832;DHT22;4452;50.756;4.472;2022-11-20T03:37:34;4.10;99.90
8832;DHT22;4452;50.756;4.472;2022-11-20T03:40:00;4.20;99.90
8832;DHT22;4452;50.756;4.472;2022-11-20T03:42:25;4.20;99.90
8832;DHT22;4452;50.756;4.472;2022-11-20T03:45:10;4.10;99.90
8832;DHT22;4452;50.756;4.472;2022-11-20T03:47:35;4.20;99.90
8832;DHT22;4452;50.756;4.472;2022-11-20T03:50:02;4.20;99.90
8832;DHT22;4452;50.756;4.472;2022-11-20T03:52:28;4.20;99.90
8832;DHT22;4452;50.756;4.472;2022-11-20T03:54:54;4.20;99.90
8832;DHT22;4452;50.756;4.472;2022-11-20T03:57:19;4.10;99.90
8832;DHT22;4452;50.756;4.472;2022-11-20T03:59:45;4.10;99.90
8832;DHT22;4452;50.756;4.472;2022-11-20T04:02:11;4.10;99.90
8832;DHT22;4452;50.756;4.472;2022-11-20T04:04:36;4.20;99.90
8832;DHT22;4452;50.756;4.472;2022-11-20T04:07:02;4.10;99.90
8832;DHT22;4452;50.756;4.472;2022-11-20T04:09:28;4.20;99.90
8832;DHT22;4452;50.756;4.472;2022-11-20T04:11:54;4.20;99.90
8832;DHT22;4452;50.756;4.472;2022-11-20T04:14:19;4.20;99.90
8832;DHT22;4452;50.756;4.472;2022-11-20T04:16:45;4.20;99.90
8832;DHT22;4452;50.756;4.472;2022-11-20T04:19:13;4.30;99.90
8832;DHT22;4452;50.756;4.472;2022-11-20T04:21:40;4.10;99.90
8832;DHT22;4452;50.756;4.472;2022-11-20T04:24:06;4.20;99.90
8832;DHT22;4452;50.756;4.472;2022-11-20T04:26:33;4.20;99.90
8832;DHT22;4452;50.756;4.472;2022-11-20T04:28:59;4.20;99.90
8832;DHT22;4452;50.756;4.472;2022-11-20T04:31:28;4.30;99.90
8832;DHT22;4452;50.756;4.472;2022-11-20T04:33:54;4.30;99.90
8832;DHT22;4452;50.756;4.472;2022-11-20T04:36:22;4.30;99.90
8832;DHT22;4452;50.756;4.472;2022-11-20T04:38:58;4.30;99.90
8832;DHT22;4452;50.756;4.472;2022-11-20T04:41:27;4.40;99.90
8832;DHT22;4452;50.756;4.472;2022-11-20T04:43:55;4.40;99.90
8832;DHT22;4452;50.756;4.472;2022-11-20T04:46:29;4.50;99.90
8832;DHT22;4452;50.756;4.472;2022-11-20T04:48:55;4.50;99.90
8832;DHT22;4452;50.756;4.472;2022-11-20T04:51:21;4.60;99.90
8832;DHT22;4452;50.756;4.472;2022-11-20T04:53:47;4.60;99.90
8832;DHT22;4452;50.756;4.472;2022-11-20T04:56:13;4.70;99.90
8832;DHT22;4452;50.756;4.472;2022-11-20T04:58:39;4.70;99.90
8832;DHT22;4452;50.756;4.472;2022-11-20T05:01:16;4.70;99.90
8832;DHT22;4452;50.756;4.472;2022-11-20T05:03:42;4.50;99.90
8832;DHT22;4452;50.756;4.472;2022-11-20T05:06:09;4.50;99.90
8832;DHT22;4452;50.756;4.472;2022-11-20T05:08:36;4.60;99.90
8832;DHT22;4452;50.756;4.472;2022-11-20T05:11:10;4.60;99.90
8832;DHT22;4452;50.756;4.472;2022-11-20T05:13:37;4.60;99.90
8832;DHT22;4452;50.756;4.472;2022-11-20T05:16:05;4.60;99.90
8832;DHT22;4452;50.756;4.472;2022-11-20T05:18:31;4.60;99.90
8832;DHT22;4452;50.756;4.472;2022-11-20T05:20:58;4.70;99.90
8832;DHT22;4452;50.756;4.472;2022-11-20T05:23:24;4.70;99.90
8832;DHT22;4452;50.756;4.472;2022-11-20T05:25:54;4.60;99.90
8832;DHT22;4452;50.756;4.472;2022-11-20T05:28:21;4.60;99.90
8832;DHT22;4452;50.756;4.472;2022-11-20T05:30:47;4.60;99.90
8832;DHT22;4452;50.756;4.472;2022-11-20T05:33:13;4.60;99.90
8832;DHT22;4452;50.756;4.472;2022-11-20T05:35:38;4.60;99.90
8832;DHT22;4452;50.756;4.472;2022-11-20T05:38:04;4.50;99.90
8832;DHT22;4452;50.756;4.472;2022-11-20T05:40:30;4.60;99.90
8832;DHT22;4452;50.756;4.472;2022-11-20T05:42:55;4.50;99.90
8832;DHT22;4452;50.756;4.472;2022-11-20T05:45:21;4.50;99.90
8832;DHT22;4452;50.756;4.472;2022-11-20T05:47:47;4.60;99.90
8832;DHT22;4452;50.756;4.472;2022-11-20T05:50:13;4.70;99.90
8832;DHT22;4452;50.756;4.472;2022-11-20T05:52:40;4.60;99.90
8832;DHT22;4452;50.756;4.472;2022-11-20T05:55:06;4.60;99.90
8832;DHT22;4452;50.756;4.472;2022-11-20T05:57:32;4.60;99.90
8832;DHT22;4452;50.756;4.472;2022-11-20T05:59:58;4.60;99.90
8832;DHT22;4452;50.756;4.472;2022-11-20T06:02:23;4.70;99.90
8832;DHT22;4452;50.756;4.472;2022-11-20T06:04:49;4.80;99.90
8832;DHT22;4452;50.756;4.472;2022-11-20T06:07:15;4.80;99.90
8832;DHT22;4452;50.756;4.472;2022-11-20T06:09:41;4.90;99.90
8832;DHT22;4452;50.756;4.472;2022-11-20T06:12:06;4.90;99.90
8832;DHT22;4452;50.756;4.472;2022-11-20T06:14:32;5.00;99.90
8832;DHT22;4452;50.756;4.472;2022-11-20T06:16:58;5.00;99.90
8832;DHT22;4452;50.756;4.472;2022-11-20T06:19:24;4.90;99.90
8832;DHT22;4452;50.756;4.472;2022-11-20T06:21:49;4.90;99.90
8832;DHT22;4452;50.756;4.472;2022-11-20T06:24:16;4.90;99.90
8832;DHT22;4452;50.756;4.472;2022-11-20T06:26:42;5.00;99.90
8832;DHT22;4452;50.756;4.472;2022-11-20T06:29:07;4.90;99.90
8832;DHT22;4452;50.756;4.472;2022-11-20T06:31:33;5.00;99.90
8832;DHT22;4452;50.756;4.472;2022-11-20T06:34:00;5.00;99.90
8832;DHT22;4452;50.756;4.472;2022-11-20T06:36:26;5.00;99.90
8832;DHT22;4452;50.756;4.472;2022-11-20T06:38:52;5.10;99.90
8832;DHT22;4452;50.756;4.472;2022-11-20T06:41:20;5.10;99.90
8832;DHT22;4452;50.756;4.472;2022-11-20T06:43:46;5.10;99.90
8832;DHT22;4452;50.756;4.472;2022-11-20T06:46:13;5.10;99.90
8832;DHT22;4452;50.756;4.472;2022-11-20T06:48:40;4.90;99.90
8832;DHT22;4452;50.756;4.472;2022-11-20T06:51:06;5.00;99.90
8832;DHT22;4452;50.756;4.472;2022-11-20T06:53:33;4.90;99.90
8832;DHT22;4452;50.756;4.472;2022-11-20T06:55:59;4.90;99.90
8832;DHT22;4452;50.756;4.472;2022-11-20T06:58:30;4.90;99.90
8832;DHT22;4452;50.756;4.472;2022-11-20T07:00:59;4.90;99.90
8832;DHT22;4452;50.756;4.472;2022-11-20T07:03:25;4.90;99.90
8832;DHT22;4452;50.756;4.472;2022-11-20T07:05:53;4.90;99.90
8832;DHT22;4452;50.756;4.472;2022-11-20T07:08:19;5.00;99.90
8832;DHT22;4452;50.756;4.472;2022-11-20T07:10:44;5.10;99.90
8832;DHT22;4452;50.756;4.472;2022-11-20T07:13:10;5.20;99.90
8832;DHT22;4452;50.756;4.472;2022-11-20T07:15:36;5.30;99.90
8832;DHT22;4452;50.756;4.472;2022-11-20T07:18:01;5.30;99.90
8832;DHT22;4452;50.756;4.472;2022-11-20T07:20:27;5.40;99.90
8832;DHT22;4452;50.756;4.472;2022-11-20T07:22:55;5.40;99.90
8832;DHT22;4452;50.756;4.472;2022-11-20T07:25:22;5.40;99.90
8832;DHT22;4452;50.756;4.472;2022-11-20T07:27:47;5.50;99.90
8832;DHT22;4452;50.756;4.472;2022-11-20T07:30:14;5.50;99.90
8832;DHT22;4452;50.756;4.472;2022-11-20T07:32:40;5.50;99.90
8832;DHT22;4452;50.756;4.472;2022-11-20T07:35:06;5.60;99.90
8832;DHT22;4452;50.756;4.472;2022-11-20T07:37:35;5.60;99.90
8832;DHT22;4452;50.756;4.472;2022-11-20T07:40:00;5.70;99.90
8832;DHT22;4452;50.756;4.472;2022-11-20T07:42:26;5.70;99.90
8832;DHT22;4452;50.756;4.472;2022-11-20T07:44:52;5.70;99.90
8832;DHT22;4452;50.756;4.472;2022-11-20T07:47:17;5.80;99.90
8832;DHT22;4452;50.756;4.472;2022-11-20T07:49:43;5.80;99.90
8832;DHT22;4452;50.756;4.472;2022-11-20T07:52:08;5.80;99.90
8832;DHT22;4452;50.756;4.472;2022-11-20T07:54:34;5.80;99.90
8832;DHT22;4452;50.756;4.472;2022-11-20T07:57:00;5.80;99.90
8832;DHT22;4452;50.756;4.472;2022-11-20T07:59:25;5.80;99.90
8832;DHT22;4452;50.756;4.472;2022-11-20T08:01:51;5.80;99.90
8832;DHT22;4452;50.756;4.472;2022-11-20T08:04:16;5.80;99.90
8832;DHT22;4452;50.756;4.472;2022-11-20T08:06:42;5.90;99.90
8832;DHT22;4452;50.756;4.472;2022-11-20T08:09:08;5.90;99.90
8832;DHT22;4452;50.756;4.472;2022-11-20T08:11:33;5.90;99.90
8832;DHT22;4452;50.756;4.472;2022-11-20T08:14:17;5.90;99.90
8832;DHT22;4452;50.756;4.472;2022-11-20T08:16:45;6.00;99.90
8832;DHT22;4452;50.756;4.472;2022-11-20T08:19:12;6.00;99.90
8832;DHT22;4452;50.756;4.472;2022-11-20T08:21:38;6.10;99.90
8832;DHT22;4452;50.756;4.472;2022-11-20T08:24:04;6.20;99.90
8832;DHT22;4452;50.756;4.472;2022-11-20T08:26:30;6.20;99.90
8832;DHT22;4452;50.756;4.472;2022-11-20T08:28:56;6.30;99.90
8832;DHT22;4452;50.756;4.472;2022-11-20T08:31:23;6.30;99.90
8832;DHT22;4452;50.756;4.472;2022-11-20T08:33:49;6.50;99.90
8832;DHT22;4452;50.756;4.472;2022-11-20T08:36:15;6.50;99.90
8832;DHT22;4452;50.756;4.472;2022-11-20T08:38:41;6.60;99.90
8832;DHT22;4452;50.756;4.472;2022-11-20T08:41:07;6.60;99.90
8832;DHT22;4452;50.756;4.472;2022-11-20T08:43:57;6.60;99.90
8832;DHT22;4452;50.756;4.472;2022-11-20T08:46:31;6.70;99.90
8832;DHT22;4452;50.756;4.472;2022-11-20T08:48:58;6.80;99.90
8832;DHT22;4452;50.756;4.472;2022-11-20T08:51:24;6.70;99.90
8832;DHT22;4452;50.756;4.472;2022-11-20T08:53:49;6.70;99.90
8832;DHT22;4452;50.756;4.472;2022-11-20T08:56:16;6.70;99.90
8832;DHT22;4452;50.756;4.472;2022-11-20T08:58:42;6.70;99.90
8832;DHT22;4452;50.756;4.472;2022-11-20T09:01:07;6.60;99.90
8832;DHT22;4452;50.756;4.472;2022-11-20T09:03:33;6.70;99.90
8832;DHT22;4452;50.756;4.472;2022-11-20T09:06:00;6.80;99.90
8832;DHT22;4452;50.756;4.472;2022-11-20T09:08:27;6.80;99.90
8832;DHT22;4452;50.756;4.472;2022-11-20T09:10:54;7.00;99.90
8832;DHT22;4452;50.756;4.472;2022-11-20T09:13:21;7.10;99.90
8832;DHT22;4452;50.756;4.472;2022-11-20T09:15:47;7.10;99.90
8832;DHT22;4452;50.756;4.472;2022-11-20T09:18:13;7.20;99.90
8832;DHT22;4452;50.756;4.472;2022-11-20T09:20:38;7.30;99.90
8832;DHT22;4452;50.756;4.472;2022-11-20T09:23:04;7.30;99.90
8832;DHT22;4452;50.756;4.472;2022-11-20T09:25:29;7.40;99.90
8832;DHT22;4452;50.756;4.472;2022-11-20T09:27:59;7.40;99.90
8832;DHT22;4452;50.756;4.472;2022-11-20T09:30:25;7.40;99.90
8832;DHT22;4452;50.756;4.472;2022-11-20T09:32:51;7.50;99.90
8832;DHT22;4452;50.756;4.472;2022-11-20T09:35:17;7.60;99.90
8832;DHT22;4452;50.756;4.472;2022-11-20T09:37:43;7.70;99.90
8832;DHT22;4452;50.756;4.472;2022-11-20T09:40:29;7.60;99.90
8832;DHT22;4452;50.756;4.472;2022-11-20T09:43:49;7.70;99.90
8832;DHT22;4452;50.756;4.472;2022-11-20T09:46:14;7.80;99.90
8832;DHT22;4452;50.756;4.472;2022-11-20T09:56:44;8.10;99.90
8832;DHT22;4452;50.756;4.472;2022-11-20T09:59:43;8.20;99.90
8832;DHT22;4452;50.756;4.472;2022-11-20T10:04:53;8.30;99.90
8832;DHT22;4452;50.756;4.472;2022-11-20T10:07:30;8.30;99.90
8832;DHT22;4452;50.756;4.472;2022-11-20T10:09:58;8.20;99.90
8832;DHT22;4452;50.756;4.472;2022-11-20T10:12:53;8.20;99.90
8832;DHT22;4452;50.756;4.472;2022-11-20T10:15:45;8.20;99.90
8832;DHT22;4452;50.756;4.472;2022-11-20T10:27:09;8.20;99.90
8832;DHT22;4452;50.756;4.472;2022-11-20T10:29:43;8.30;99.90
8832;DHT22;4452;50.756;4.472;2022-11-20T10:32:15;8.50;99.90
8832;DHT22;4452;50.756;4.472;2022-11-20T10:34:46;8.40;99.90
8832;DHT22;4452;50.756;4.472;2022-11-20T10:37:24;8.40;99.90
8832;DHT22;4452;50.756;4.472;2022-11-20T10:40:03;8.50;99.90
8832;DHT22;4452;50.756;4.472;2022-11-20T10:42:46;8.60;99.90
8832;DHT22;4452;50.756;4.472;2022-11-20T10:45:31;8.80;99.90
8832;DHT22;4452;50.756;4.472;2022-11-20T10:48:19;8.90;99.90
8832;DHT22;4452;50.756;4.472;2022-11-20T10:56:41;8.80;99.90
8832;DHT22;4452;50.756;4.472;2022-11-20T11:00:23;8.80;99.90
8832;DHT22;4452;50.756;4.472;2022-11-20T11:02:20;8.90;99.90
8832;DHT22;4452;50.756;4.472;2022-11-20T11:04:52;9.00;99.90
8832;DHT22;4452;50.756;4.472;2022-11-20T11:07:37;9.00;99.90
8832;DHT22;4452;50.756;4.472;2022-11-20T11:12:55;9.00;99.90
8832;DHT22;4452;50.756;4.472;2022-11-20T11:15:27;9.10;99.90
8832;DHT22;4452;50.756;4.472;2022-11-20T11:17:53;9.00;99.90
8832;DHT22;4452;50.756;4.472;2022-11-20T11:20:22;9.00;99.90
8832;DHT22;4452;50.756;4.472;2022-11-20T11:22:51;9.00;99.90
8832;DHT22;4452;50.756;4.472;2022-11-20T11:27:51;9.00;99.90
8832;DHT22;4452;50.756;4.472;2022-11-20T11:30:19;8.80;99.90
8832;DHT22;4452;50.756;4.472;2022-11-20T11:32:45;8.90;99.90
8832;DHT22;4452;50.756;4.472;2022-11-20T11:35:27;8.80;99.90
8832;DHT22;4452;50.756;4.472;2022-11-20T11:38:02;8.90;99.90
8832;DHT22;4452;50.756;4.472;2022-11-20T11:40:31;8.80;99.90
8832;DHT22;4452;50.756;4.472;2022-11-20T11:42:59;8.70;99.90
8832;DHT22;4452;50.756;4.472;2022-11-20T11:45:27;8.70;99.90
8832;DHT22;4452;50.756;4.472;2022-11-20T11:47:55;8.70;99.90
8832;DHT22;4452;50.756;4.472;2022-11-20T11:50:28;8.70;99.90
8832;DHT22;4452;50.756;4.472;2022-11-20T11:53:18;8.60;99.90
8832;DHT22;4452;50.756;4.472;2022-11-20T11:58:47;8.50;99.90
8832;DHT22;4452;50.756;4.472;2022-11-20T12:06:51;8.30;99.90
8832;DHT22;4452;50.756;4.472;2022-11-20T12:09:23;8.30;99.90
8832;DHT22;4452;50.756;4.472;2022-11-20T12:12:13;8.40;99.90
8832;DHT22;4452;50.756;4.472;2022-11-20T12:14:44;8.40;99.90
8832;DHT22;4452;50.756;4.472;2022-11-20T12:17:12;8.40;99.90
8832;DHT22;4452;50.756;4.472;2022-11-20T12:19:39;8.30;99.90
8832;DHT22;4452;50.756;4.472;2022-11-20T12:24:52;8.20;99.90
8832;DHT22;4452;50.756;4.472;2022-11-20T12:27:35;8.20;99.90
8832;DHT22;4452;50.756;4.472;2022-11-20T12:30:19;8.20;99.90
8832;DHT22;4452;50.756;4.472;2022-11-20T12:35:32;8.20;99.90
8832;DHT22;4452;50.756;4.472;2022-11-20T12:41:40;8.30;99.90
8832;DHT22;4452;50.756;4.472;2022-11-20T12:47:20;8.20;99.90
8832;DHT22;4452;50.756;4.472;2022-11-20T12:52:53;8.40;99.90
8832;DHT22;4452;50.756;4.472;2022-11-20T13:04:10;8.30;99.90
8832;DHT22;4452;50.756;4.472;2022-11-20T13:06:38;8.30;99.90
8832;DHT22;4452;50.756;4.472;2022-11-20T13:09:09;8.20;99.90
8832;DHT22;4452;50.756;4.472;2022-11-20T13:14:42;8.20;99.90
8832;DHT22;4452;50.756;4.472;2022-11-20T13:17:24;8.10;99.90
8832;DHT22;4452;50.756;4.472;2022-11-20T13:19:53;8.10;99.90
8832;DHT22;4452;50.756;4.472;2022-11-20T13:25:10;8.10;99.90
8832;DHT22;4452;50.756;4.472;2022-11-20T13:27:46;8.10;99.90
8832;DHT22;4452;50.756;4.472;2022-11-20T13:30:15;8.10;99.90
8832;DHT22;4452;50.756;4.472;2022-11-20T13:33:20;8.00;99.90
8832;DHT22;4452;50.756;4.472;2022-11-20T13:35:57;8.10;99.90
8832;DHT22;4452;50.756;4.472;2022-11-20T13:38:23;8.10;99.90
8832;DHT22;4452;50.756;4.472;2022-11-20T13:40:55;8.00;99.90
8832;DHT22;4452;50.756;4.472;2022-11-20T13:43:27;8.00;99.90
8832;DHT22;4452;50.756;4.472;2022-11-20T13:46:05;8.10;99.90
8832;DHT22;4452;50.756;4.472;2022-11-20T13:48:42;8.00;99.90
8832;DHT22;4452;50.756;4.472;2022-11-20T13:51:30;8.00;99.90
8832;DHT22;4452;50.756;4.472;2022-11-20T13:56:54;8.00;99.90
8832;DHT22;4452;50.756;4.472;2022-11-20T14:02:16;8.10;99.90
8832;DHT22;4452;50.756;4.472;2022-11-20T14:04:48;8.10;99.90
8832;DHT22;4452;50.756;4.472;2022-11-20T14:07:15;8.10;99.90
8832;DHT22;4452;50.756;4.472;2022-11-20T14:09:50;8.10;99.90
8832;DHT22;4452;50.756;4.472;2022-11-20T14:12:19;8.20;99.90
8832;DHT22;4452;50.756;4.472;2022-11-20T14:14:51;8.20;99.90
8832;DHT22;4452;50.756;4.472;2022-11-20T14:17:23;8.20;99.90
8832;DHT22;4452;50.756;4.472;2022-11-20T14:19:51;8.20;99.90
8832;DHT22;4452;50.756;4.472;2022-11-20T14:22:19;8.20;99.90
8832;DHT22;4452;50.756;4.472;2022-11-20T14:24:46;8.20;99.90
8832;DHT22;4452;50.756;4.472;2022-11-20T14:27:14;8.20;99.90
8832;DHT22;4452;50.756;4.472;2022-11-20T14:29:41;8.20;99.90
8832;DHT22;4452;50.756;4.472;2022-11-20T14:32:09;8.30;99.90
8832;DHT22;4452;50.756;4.472;2022-11-20T14:34:40;8.30;99.90
8832;DHT22;4452;50.756;4.472;2022-11-20T14:37:11;8.30;99.90
8832;DHT22;4452;50.756;4.472;2022-11-20T14:39:41;8.30;99.90
8832;DHT22;4452;50.756;4.472;2022-11-20T14:42:16;8.30;99.90
8832;DHT22;4452;50.756;4.472;2022-11-20T14:44:42;8.30;99.90
8832;DHT22;4452;50.756;4.472;2022-11-20T14:47:10;8.30;99.90
8832;DHT22;4452;50.756;4.472;2022-11-20T14:49:37;8.40;99.90
8832;DHT22;4452;50.756;4.472;2022-11-20T14:52:12;8.30;99.90
8832;DHT22;4452;50.756;4.472;2022-11-20T14:54:55;8.30;99.90
8832;DHT22;4452;50.756;4.472;2022-11-20T14:57:34;8.40;99.90
8832;DHT22;4452;50.756;4.472;2022-11-20T15:00:27;8.40;99.90
8832;DHT22;4452;50.756;4.472;2022-11-20T15:02:53;8.40;99.90
8832;DHT22;4452;50.756;4.472;2022-11-20T15:08:09;8.50;99.90
8832;DHT22;4452;50.756;4.472;2022-11-20T15:10:36;8.50;99.90
8832;DHT22;4452;50.756;4.472;2022-11-20T15:13:12;8.60;99.90
8832;DHT22;4452;50.756;4.472;2022-11-20T15:15:48;8.60;99.90
8832;DHT22;4452;50.756;4.472;2022-11-20T15:18:21;8.70;99.90
8832;DHT22;4452;50.756;4.472;2022-11-20T15:20:48;8.70;99.90
8832;DHT22;4452;50.756;4.472;2022-11-20T15:23:16;8.70;99.90
8832;DHT22;4452;50.756;4.472;2022-11-20T15:25:44;8.80;99.90
8832;DHT22;4452;50.756;4.472;2022-11-20T15:30:44;8.80;99.90
8832;DHT22;4452;50.756;4.472;2022-11-20T15:33:10;8.80;99.90
8832;DHT22;4452;50.756;4.472;2022-11-20T15:35:36;8.80;99.90
8832;DHT22;4452;50.756;4.472;2022-11-20T15:38:02;8.80;99.90
8832;DHT22;4452;50.756;4.472;2022-11-20T15:40:27;8.90;99.90
8832;DHT22;4452;50.756;4.472;2022-11-20T15:42:54;8.90;99.90
8832;DHT22;4452;50.756;4.472;2022-11-20T15:48:21;8.90;99.90
8832;DHT22;4452;50.756;4.472;2022-11-20T15:50:51;8.90;99.90
8832;DHT22;4452;50.756;4.472;2022-11-20T15:53:20;9.00;99.90
8832;DHT22;4452;50.756;4.472;2022-11-20T15:55:48;9.00;99.90
8832;DHT22;4452;50.756;4.472;2022-11-20T15:58:14;9.00;99.90
8832;DHT22;4452;50.756;4.472;2022-11-20T16:00:42;9.00;99.90
8832;DHT22;4452;50.756;4.472;2022-11-20T16:03:11;9.10;99.90
8832;DHT22;4452;50.756;4.472;2022-11-20T16:05:37;9.00;99.90
8832;DHT22;4452;50.756;4.472;2022-11-20T16:08:02;9.00;99.90
8832;DHT22;4452;50.756;4.472;2022-11-20T16:10:28;9.00;99.90
8832;DHT22;4452;50.756;4.472;2022-11-20T16:12:54;9.00;99.90
8832;DHT22;4452;50.756;4.472;2022-11-20T16:15:39;9.00;99.90
8832;DHT22;4452;50.756;4.472;2022-11-20T16:18:11;9.00;99.90
8832;DHT22;4452;50.756;4.472;2022-11-20T16:20:38;9.10;99.90
8832;DHT22;4452;50.756;4.472;2022-11-20T16:23:05;9.10;99.90
8832;DHT22;4452;50.756;4.472;2022-11-20T16:25:31;9.10;99.90
8832;DHT22;4452;50.756;4.472;2022-11-20T16:27:56;9.10;99.90
8832;DHT22;4452;50.756;4.472;2022-11-20T16:30:22;9.00;99.90
8832;DHT22;4452;50.756;4.472;2022-11-20T16:32:48;9.00;99.90
8832;DHT22;4452;50.756;4.472;2022-11-20T16:35:14;9.00;99.90
8832;DHT22;4452;50.756;4.472;2022-11-20T16:37:40;9.00;99.90
8832;DHT22;4452;50.756;4.472;2022-11-20T16:40:07;9.00;99.90
8832;DHT22;4452;50.756;4.472;2022-11-20T16:42:34;9.10;99.90
8832;DHT22;4452;50.756;4.472;2022-11-20T16:45:00;9.10;99.90
8832;DHT22;4452;50.756;4.472;2022-11-20T16:47:26;9.00;99.90
8832;DHT22;4452;50.756;4.472;2022-11-20T16:49:51;9.00;99.90
8832;DHT22;4452;50.756;4.472;2022-11-20T16:52:17;9.00;99.90
8832;DHT22;4452;50.756;4.472;2022-11-20T16:54:43;8.90;99.90
8832;DHT22;4452;50.756;4.472;2022-11-20T16:57:08;8.80;99.90
8832;DHT22;4452;50.756;4.472;2022-11-20T16:59:34;8.90;99.90
8832;DHT22;4452;50.756;4.472;2022-11-20T17:01:59;8.80;99.90
8832;DHT22;4452;50.756;4.472;2022-11-20T17:04:26;8.90;99.90
8832;DHT22;4452;50.756;4.472;2022-11-20T17:06:51;8.80;99.90
8832;DHT22;4452;50.756;4.472;2022-11-20T17:09:17;8.80;99.90
8832;DHT22;4452;50.756;4.472;2022-11-20T17:11:42;8.80;99.90
8832;DHT22;4452;50.756;4.472;2022-11-20T17:14:10;8.80;99.90
8832;DHT22;4452;50.756;4.472;2022-11-20T17:16:36;8.90;99.90
8832;DHT22;4452;50.756;4.472;2022-11-20T17:19:03;8.80;99.90
8832;DHT22;4452;50.756;4.472;2022-11-20T17:21:31;8.80;99.90
8832;DHT22;4452;50.756;4.472;2022-11-20T17:24:00;8.70;99.90
8832;DHT22;4452;50.756;4.472;2022-11-20T17:26:27;8.70;99.90
8832;DHT22;4452;50.756;4.472;2022-11-20T17:28:55;8.60;99.90
8832;DHT22;4452;50.756;4.472;2022-11-20T17:31:22;8.50;99.90
8832;DHT22;4452;50.756;4.472;2022-11-20T17:33:48;8.50;99.90
8832;DHT22;4452;50.756;4.472;2022-11-20T17:36:16;8.50;99.90
8832;DHT22;4452;50.756;4.472;2022-11-20T17:38:42;8.50;99.90
8832;DHT22;4452;50.756;4.472;2022-11-20T17:41:11;8.50;99.90
8832;DHT22;4452;50.756;4.472;2022-11-20T17:43:37;8.50;99.90
8832;DHT22;4452;50.756;4.472;2022-11-20T17:46:08;8.50;99.90
8832;DHT22;4452;50.756;4.472;2022-11-20T17:48:34;8.50;99.90
8832;DHT22;4452;50.756;4.472;2022-11-20T17:51:05;8.40;99.90
8832;DHT22;4452;50.756;4.472;2022-11-20T17:53:36;8.50;99.90
8832;DHT22;4452;50.756;4.472;2022-11-20T17:56:02;8.50;99.90
8832;DHT22;4452;50.756;4.472;2022-11-20T17:58:47;8.50;99.90
8832;DHT22;4452;50.756;4.472;2022-11-20T18:01:13;8.50;99.90